Time;durP1;ratioP1;P1;durP2;ratioP2;P2;SDS_P1;SDS_P2;PMS_P1;PMS_P2;Temp;Humidity;BMP_temperature;BMP_pressure;BME280_temperature;BME280_humidity;BME280_pressure;Samples;Min_cycle;Max_cycle;Signal;HPM_P1;HPM_P2
2023/01/20 00:00:27;;;;;;;34.80;14.48;;;;;;;;;;5111469;28;20038;-76
2023/01/20 00:02:53;;;;;;;29.60;13.55;;;;;;;;;;5108792;28;20471;-76
2023/01/20 00:05:19;;;;;;;22.50;10.98;;;;;;;;;;5111841;28;20106;-76
2023/01/20 00:07:45;;;;;;;25.05;11.23;;;;;;;;;;5102455;28;20031;-76
2023/01/20 00:10:11;;;;;;;26.30;11.85;;;;;;;;;;5104163;28;20046;-76
2023/01/20 00:12:37;;;;;;;24.15;10.75;;;;;;;;;;5094013;28;20032;-76
2023/01/20 00:15:03;;;;;;;28.90;12.48;;;;;;;;;;5107463;28;20042;-76
2023/01/20 00:17:29;;;;;;;28.88;12.05;;;;;;;;;;5111145;28;20678;-76
2023/01/20 00:19:55;;;;;;;73.82;29.27;;;;;;;;;;5106896;28;20030;-75
2023/01/20 00:22:21;;;;;;;90.00;34.40;;;;;;;;;;5108271;28;20039;-76
2023/01/20 00:24:47;;;;;;;83.53;31.27;;;;;;;;;;5110207;28;20028;-76
2023/01/20 00:27:13;;;;;;;62.05;25.95;;;;;;;;;;5109295;28;20031;-76
2023/01/20 00:29:42;;;;;;;61.00;25.50;;;;;;;;;;5111382;28;20043;-76
2023/01/20 00:32:08;;;;;;;59.05;27.85;;;;;;;;;;5094914;28;20096;-76
2023/01/20 00:34:34;;;;;;;75.82;28.90;;;;;;;;;;5109306;28;20466;-76
2023/01/20 00:37:00;;;;;;;58.55;24.83;;;;;;;;;;5109746;28;20030;-76
2023/01/20 00:39:26;;;;;;;45.25;19.05;;;;;;;;;;5108891;28;20019;-76
2023/01/20 00:41:52;;;;;;;33.75;14.25;;;;;;;;;;5107664;28;20024;-76
2023/01/20 00:44:18;;;;;;;31.38;15.30;;;;;;;;;;5100182;28;20100;-75
2023/01/20 00:46:44;;;;;;;22.83;11.98;;;;;;;;;;5100739;28;20105;-76
2023/01/20 00:49:11;;;;;;;31.13;12.00;;;;;;;;;;5109063;28;20149;-76
2023/01/20 00:51:37;;;;;;;26.95;11.38;;;;;;;;;;5101170;28;20088;-76
2023/01/20 00:54:03;;;;;;;34.67;15.68;;;;;;;;;;5089134;28;20571;-76
2023/01/20 00:56:29;;;;;;;37.13;17.40;;;;;;;;;;5104707;28;20121;-76
2023/01/20 00:58:55;;;;;;;42.25;21.52;;;;;;;;;;5106382;28;20115;-76
2023/01/20 01:01:22;;;;;;;37.65;19.50;;;;;;;;;;5110426;28;20031;-76
2023/01/20 01:03:48;;;;;;;41.55;21.95;;;;;;;;;;5097083;28;20039;-76
2023/01/20 01:06:15;;;;;;;31.27;17.52;;;;;;;;;;5101449;28;20032;-76
2023/01/20 01:08:41;;;;;;;37.47;18.95;;;;;;;;;;5095233;28;20032;-76
2023/01/20 01:11:08;;;;;;;32.58;16.42;;;;;;;;;;5090504;28;20028;-75
2023/01/20 01:13:34;;;;;;;33.22;17.38;;;;;;;;;;5099815;28;20861;-76
2023/01/20 01:16:00;;;;;;;25.05;14.88;;;;;;;;;;5098213;28;20119;-76
2023/01/20 01:18:26;;;;;;;25.17;14.10;;;;;;;;;;5107523;28;20110;-76
2023/01/20 01:20:52;;;;;;;26.15;11.90;;;;;;;;;;5100196;28;20032;-76
2023/01/20 01:23:18;;;;;;;21.02;10.18;;;;;;;;;;5104644;28;20056;-76
2023/01/20 01:25:44;;;;;;;21.63;9.77;;;;;;;;;;5095269;28;20036;-76
2023/01/20 01:28:10;;;;;;;25.02;10.60;;;;;;;;;;5101234;28;20385;-76
2023/01/20 01:30:36;;;;;;;20.77;10.63;;;;;;;;;;5107467;28;20036;-76
2023/01/20 01:33:02;;;;;;;20.85;9.75;;;;;;;;;;5100950;28;20035;-76
2023/01/20 01:35:28;;;;;;;20.13;9.90;;;;;;;;;;5109537;28;20031;-76
2023/01/20 01:37:54;;;;;;;22.25;10.23;;;;;;;;;;5098791;28;20059;-76
2023/01/20 01:40:20;;;;;;;25.13;10.85;;;;;;;;;;5101616;28;20047;-76
2023/01/20 01:42:46;;;;;;;23.85;11.05;;;;;;;;;;5102283;28;20038;-76
2023/01/20 01:45:12;;;;;;;21.60;10.43;;;;;;;;;;5102728;28;20035;-76
2023/01/20 01:47:44;;;;;;;24.10;11.23;;;;;;;;;;5101603;28;20035;-76
2023/01/20 01:50:12;;;;;;;20.88;11.02;;;;;;;;;;5104153;28;20047;-76
2023/01/20 01:52:39;;;;;;;22.45;11.20;;;;;;;;;;5095646;28;20456;-76
2023/01/20 01:55:06;;;;;;;22.63;10.95;;;;;;;;;;5104134;28;20427;-77
2023/01/20 01:57:33;;;;;;;21.83;9.88;;;;;;;;;;5100509;28;20089;-76
2023/01/20 01:59:59;;;;;;;23.08;10.60;;;;;;;;;;5099838;28;20024;-76
2023/01/20 02:02:25;;;;;;;21.65;10.10;;;;;;;;;;5108879;28;20527;-76
2023/01/20 02:04:51;;;;;;;22.40;10.50;;;;;;;;;;5104766;28;20067;-75
2023/01/20 02:07:18;;;;;;;25.45;11.68;;;;;;;;;;5107839;28;20063;-76
2023/01/20 02:09:45;;;;;;;21.23;10.88;;;;;;;;;;5108522;28;20034;-76
2023/01/20 02:12:12;;;;;;;22.77;10.85;;;;;;;;;;5099585;28;20032;-76
2023/01/20 02:14:44;;;;;;;26.17;11.70;;;;;;;;;;5101203;28;20027;-76
2023/01/20 02:17:29;;;;;;;29.42;12.27;;;;;;;;;;5105332;28;20031;-76
2023/01/20 02:20:04;;;;;;;22.42;10.15;;;;;;;;;;5105648;28;20485;-76
2023/01/20 02:22:36;;;;;;;21.83;10.48;;;;;;;;;;5107243;28;20043;-76
2023/01/20 02:25:05;;;;;;;22.45;10.07;;;;;;;;;;5096412;28;20038;-75
2023/01/20 02:27:34;;;;;;;17.73;9.02;;;;;;;;;;5098649;28;20103;-76
2023/01/20 02:30:10;;;;;;;26.23;12.20;;;;;;;;;;5102100;28;20032;-75
2023/01/20 02:32:42;;;;;;;23.15;11.10;;;;;;;;;;5097131;28;20040;-75
2023/01/20 02:35:15;;;;;;;21.60;11.02;;;;;;;;;;5100584;28;20036;-76
2023/01/20 02:37:51;;;;;;;18.92;7.30;;;;;;;;;;5108704;28;20043;-76
2023/01/20 02:40:19;;;;;;;16.20;7.38;;;;;;;;;;5107482;28;20047;-75
2023/01/20 02:42:50;;;;;;;15.00;6.85;;;;;;;;;;5106237;28;20034;-75
2023/01/20 02:45:20;;;;;;;15.82;6.20;;;;;;;;;;5106713;28;20104;-76
2023/01/20 02:47:52;;;;;;;13.25;6.85;;;;;;;;;;5108331;28;20487;-75
2023/01/20 02:50:37;;;;;;;14.60;6.88;;;;;;;;;;5092200;28;20522;-76
2023/01/20 02:53:04;;;;;;;14.90;7.57;;;;;;;;;;5104719;28;20048;-75
2023/01/20 02:55:38;;;;;;;17.52;7.65;;;;;;;;;;5097726;28;20911;-75
2023/01/20 02:58:07;;;;;;;18.80;7.82;;;;;;;;;;5100288;28;20116;-76
2023/01/20 03:00:39;;;;;;;16.52;8.70;;;;;;;;;;5102187;28;20024;-76
2023/01/20 03:03:05;;;;;;;;;;;;;;;;;;5103047;28;20063;-75
2023/01/20 03:05:32;;;;;;;18.80;9.20;;;;;;;;;;5103870;28;19939;-75
2023/01/20 03:08:00;;;;;;;17.73;9.23;;;;;;;;;;5106578;28;20071;-75
2023/01/20 03:10:30;;;;;;;22.58;9.48;;;;;;;;;;5109746;28;20394;-75
2023/01/20 03:13:05;;;;;;;18.77;8.77;;;;;;;;;;5108469;28;20032;-75
2023/01/20 03:15:35;;;;;;;14.68;7.43;;;;;;;;;;5095978;28;20035;-75
2023/01/20 03:18:01;;;;;;;19.63;8.90;;;;;;;;;;5110111;28;20027;-75
2023/01/20 03:20:27;;;;;;;18.67;9.35;;;;;;;;;;5092266;28;20028;-75
2023/01/20 03:22:53;;;;;;;19.65;9.73;;;;;;;;;;5104068;28;20092;-75
2023/01/20 03:25:19;;;;;;;21.40;9.60;;;;;;;;;;5102546;28;20036;-75
2023/01/20 03:27:45;;;;;;;18.33;8.50;;;;;;;;;;5107053;28;20040;-75
2023/01/20 03:30:12;;;;;;;22.23;9.38;;;;;;;;;;5109490;28;20043;-76
2023/01/20 03:32:38;;;;;;;21.20;9.15;;;;;;;;;;5107573;28;20032;-76
2023/01/20 03:35:05;;;;;;;18.98;9.68;;;;;;;;;;5100236;28;20040;-76
2023/01/20 03:37:31;;;;;;;18.60;9.38;;;;;;;;;;5103402;28;20027;-76
2023/01/20 03:39:57;;;;;;;17.30;8.75;;;;;;;;;;5112321;28;20031;-76
2023/01/20 03:42:33;;;;;;;18.85;9.05;;;;;;;;;;5107777;28;20066;-75
2023/01/20 03:44:59;;;;;;;17.67;10.38;;;;;;;;;;5107796;28;20036;-75
2023/01/20 03:47:28;;;;;;;16.02;8.38;;;;;;;;;;5110620;28;20073;-75
2023/01/20 03:49:54;;;;;;;18.75;9.13;;;;;;;;;;5099576;28;20044;-76
2023/01/20 03:52:27;;;;;;;15.50;7.90;;;;;;;;;;5107030;28;20363;-76
2023/01/20 03:54:57;;;;;;;15.88;7.15;;;;;;;;;;5105801;28;20489;-75
2023/01/20 03:57:26;;;;;;;18.48;7.10;;;;;;;;;;5109278;28;20135;-75
2023/01/20 03:59:52;;;;;;;14.13;6.43;;;;;;;;;;5107343;28;20035;-75
2023/01/20 04:02:19;;;;;;;14.77;8.13;;;;;;;;;;5101416;28;20115;-75
2023/01/20 04:04:46;;;;;;;17.77;7.53;;;;;;;;;;5104947;28;20381;-76
2023/01/20 04:07:16;;;;;;;14.52;7.25;;;;;;;;;;5110132;28;20044;-76
2023/01/20 04:09:44;;;;;;;16.98;8.15;;;;;;;;;;5100224;28;20123;-75
2023/01/20 04:12:10;;;;;;;16.63;7.50;;;;;;;;;;5107868;28;20494;-75
2023/01/20 04:14:37;;;;;;;19.10;8.35;;;;;;;;;;5109019;28;20038;-75
2023/01/20 04:17:03;;;;;;;17.15;7.70;;;;;;;;;;5100753;28;20497;-76
2023/01/20 04:19:30;;;;;;;17.48;8.13;;;;;;;;;;5107771;28;20390;-75
2023/01/20 04:22:28;;;;;;;41.90;15.77;;;;;;;;;;5110096;28;20424;-76
2023/01/20 04:24:57;;;;;;;18.77;6.93;;;;;;;;;;5063323;28;20037;-75
2023/01/20 04:27:23;;;;;;;63.35;23.30;;;;;;;;;;5100263;28;20031;-75
2023/01/20 04:29:49;;;;;;;27.80;11.18;;;;;;;;;;5109450;28;20034;-75
2023/01/20 04:32:15;;;;;;;16.90;6.20;;;;;;;;;;5092088;28;20036;-75
2023/01/20 04:34:41;;;;;;;17.80;7.15;;;;;;;;;;5097961;28;20142;-75
2023/01/20 04:37:07;;;;;;;19.67;8.20;;;;;;;;;;5100056;28;20114;-75
2023/01/20 04:39:33;;;;;;;17.38;8.02;;;;;;;;;;5109183;28;20032;-75
2023/01/20 04:41:59;;;;;;;16.58;7.63;;;;;;;;;;5107721;28;20032;-75
2023/01/20 04:44:25;;;;;;;15.02;6.38;;;;;;;;;;5108027;28;20546;-75
2023/01/20 04:46:50;;;;;;;15.65;7.55;;;;;;;;;;5089052;28;20138;-75
2023/01/20 04:49:16;;;;;;;15.30;5.85;;;;;;;;;;5108388;28;20031;-75
2023/01/20 04:51:42;;;;;;;12.30;5.25;;;;;;;;;;5100002;28;20113;-76
2023/01/20 04:54:08;;;;;;;15.15;6.75;;;;;;;;;;5109755;28;20127;-75
2023/01/20 04:56:34;;;;;;;15.10;6.15;;;;;;;;;;5108474;28;20052;-75
2023/01/20 04:59:00;;;;;;;15.85;6.28;;;;;;;;;;5110272;28;20513;-75
2023/01/20 05:01:26;;;;;;;14.10;5.40;;;;;;;;;;5101022;28;20032;-75
2023/01/20 05:03:52;;;;;;;11.20;5.28;;;;;;;;;;5098701;28;20027;-75
2023/01/20 05:06:18;;;;;;;16.60;5.20;;;;;;;;;;5107739;28;20046;-75
2023/01/20 05:08:44;;;;;;;14.02;6.68;;;;;;;;;;5092555;28;20103;-75
2023/01/20 05:11:10;;;;;;;13.50;6.72;;;;;;;;;;5097659;28;20042;-75
2023/01/20 05:13:38;;;;;;;12.93;5.75;;;;;;;;;;5110200;28;20339;-75
2023/01/20 05:16:08;;;;;;;12.57;5.55;;;;;;;;;;5096148;28;20057;-75
2023/01/20 05:18:34;;;;;;;18.25;8.63;;;;;;;;;;5109700;28;20027;-75
2023/01/20 05:21:00;;;;;;;15.63;7.85;;;;;;;;;;5101334;28;20032;-75
2023/01/20 05:23:26;;;;;;;18.13;8.73;;;;;;;;;;5108096;28;20027;-75
2023/01/20 05:25:52;;;;;;;17.00;7.97;;;;;;;;;;5108746;28;20046;-75
2023/01/20 05:28:19;;;;;;;13.98;7.50;;;;;;;;;;5107404;28;20054;-75
2023/01/20 05:30:45;;;;;;;14.65;8.27;;;;;;;;;;5102675;28;20035;-75
2023/01/20 05:33:11;;;;;;;14.82;7.35;;;;;;;;;;5106027;28;20036;-75
2023/01/20 05:35:38;;;;;;;14.77;6.90;;;;;;;;;;5097703;28;20035;-75
2023/01/20 05:38:04;;;;;;;15.68;7.65;;;;;;;;;;5104387;28;20035;-75
2023/01/20 05:40:30;;;;;;;16.05;7.18;;;;;;;;;;5109613;28;20382;-75
2023/01/20 05:42:59;;;;;;;16.88;7.63;;;;;;;;;;5101275;28;20035;-75
2023/01/20 05:45:25;;;;;;;17.75;8.23;;;;;;;;;;5099875;28;20035;-75
2023/01/20 05:47:58;;;;;;;17.30;9.20;;;;;;;;;;5104543;28;20395;-75
2023/01/20 05:50:25;;;;;;;16.13;7.22;;;;;;;;;;5108424;28;20551;-75
2023/01/20 05:52:51;;;;;;;14.93;7.32;;;;;;;;;;5104739;28;20063;-75
2023/01/20 05:55:17;;;;;;;14.73;6.22;;;;;;;;;;5100309;28;20066;-75
2023/01/20 05:57:43;;;;;;;17.20;7.45;;;;;;;;;;5096455;28;20031;-75
2023/01/20 06:00:09;;;;;;;18.15;8.52;;;;;;;;;;5103859;28;20103;-75
2023/01/20 06:02:35;;;;;;;26.65;13.02;;;;;;;;;;5106696;28;20036;-75
2023/01/20 06:05:01;;;;;;;31.70;13.65;;;;;;;;;;5108943;28;20036;-75
2023/01/20 06:07:28;;;;;;;30.77;12.25;;;;;;;;;;5089872;28;20121;-75
2023/01/20 06:09:54;;;;;;;29.27;12.85;;;;;;;;;;5101391;28;20024;-75
2023/01/20 06:12:20;;;;;;;27.88;11.43;;;;;;;;;;5108009;28;20035;-75
2023/01/20 06:14:46;;;;;;;46.10;17.10;;;;;;;;;;5103280;28;20100;-75
2023/01/20 06:17:12;;;;;;;55.35;23.23;;;;;;;;;;5101740;28;20601;-75
2023/01/20 06:19:38;;;;;;;55.70;22.17;;;;;;;;;;5101759;28;20034;-75
2023/01/20 06:22:04;;;;;;;38.90;18.45;;;;;;;;;;5104507;28;20475;-76
2023/01/20 06:24:30;;;;;;;32.05;13.68;;;;;;;;;;5099926;28;20047;-75
2023/01/20 06:26:56;;;;;;;21.70;9.65;;;;;;;;;;5104732;28;20787;-75
2023/01/20 06:29:22;;;;;;;24.20;9.80;;;;;;;;;;5099560;28;20051;-75
2023/01/20 06:31:48;;;;;;;32.17;13.75;;;;;;;;;;5098696;28;20484;-75
2023/01/20 06:34:14;;;;;;;31.80;12.95;;;;;;;;;;5107346;28;20038;-76
2023/01/20 06:36:40;;;;;;;31.70;11.85;;;;;;;;;;5108116;28;20028;-75
2023/01/20 06:39:06;;;;;;;28.10;13.48;;;;;;;;;;5105963;28;20016;-75
2023/01/20 06:41:32;;;;;;;30.75;13.88;;;;;;;;;;5104906;27;20046;-76
2023/01/20 06:43:58;;;;;;;32.13;14.23;;;;;;;;;;5097168;27;20061;-76
2023/01/20 06:46:24;;;;;;;29.02;12.75;;;;;;;;;;5106949;28;20049;-76
2023/01/20 06:48:50;;;;;;;29.52;13.02;;;;;;;;;;5111225;28;20024;-76
2023/01/20 06:51:18;;;;;;;31.73;14.77;;;;;;;;;;5107204;28;20056;-76
2023/01/20 06:53:44;;;;;;;36.75;16.23;;;;;;;;;;5102196;28;20470;-76
2023/01/20 06:56:11;;;;;;;27.80;13.57;;;;;;;;;;5110074;28;20442;-76
2023/01/20 06:58:38;;;;;;;33.42;15.25;;;;;;;;;;5111554;28;20037;-76
2023/01/20 07:01:05;;;;;;;36.67;15.18;;;;;;;;;;5106491;28;20692;-76
2023/01/20 07:03:31;;;;;;;45.58;19.25;;;;;;;;;;5109692;28;20050;-75
2023/01/20 07:06:24;;;;;;;52.92;22.25;;;;;;;;;;5110110;28;20383;-76
2023/01/20 07:08:50;;;;;;;43.42;17.35;;;;;;;;;;5105266;28;20040;-76
2023/01/20 07:11:16;;;;;;;41.67;16.98;;;;;;;;;;5109670;28;20039;-75
2023/01/20 07:13:42;;;;;;;36.13;15.55;;;;;;;;;;5107882;28;20036;-76
2023/01/20 07:16:08;;;;;;;40.20;15.90;;;;;;;;;;5105458;28;20039;-75
2023/01/20 07:18:35;;;;;;;42.55;21.92;;;;;;;;;;5111250;28;20203;-76
2023/01/20 07:21:01;;;;;;;36.38;19.60;;;;;;;;;;5102626;28;20023;-76
2023/01/20 07:23:28;;;;;;;25.90;10.75;;;;;;;;;;5109391;28;20815;-76
2023/01/20 07:25:57;;;;;;;19.80;9.15;;;;;;;;;;5107816;28;20114;-76
2023/01/20 07:28:23;;;;;;;13.07;5.70;;;;;;;;;;5109316;28;20043;-75
2023/01/20 07:30:49;;;;;;;10.15;4.45;;;;;;;;;;5089688;28;20027;-75
2023/01/20 07:33:15;;;;;;;10.35;3.92;;;;;;;;;;5108843;28;20035;-76
2023/01/20 07:35:41;;;;;;;14.88;4.50;;;;;;;;;;5109162;28;20042;-76
2023/01/20 07:38:07;;;;;;;8.45;4.20;;;;;;;;;;5110552;28;20103;-76
2023/01/20 07:40:33;;;;;;;11.95;5.43;;;;;;;;;;5106259;28;20028;-75
2023/01/20 07:43:02;;;;;;;22.77;10.73;;;;;;;;;;5104609;28;20355;-76
2023/01/20 07:45:28;;;;;;;50.70;19.65;;;;;;;;;;5106004;28;20460;-76
2023/01/20 07:47:55;;;;;;;59.47;23.20;;;;;;;;;;5108759;28;20051;-76
2023/01/20 07:50:21;;;;;;;64.97;25.27;;;;;;;;;;5109688;28;20710;-76
2023/01/20 07:52:47;;;;;;;73.45;28.38;;;;;;;;;;5101656;28;20104;-76
2023/01/20 07:55:14;;;;;;;71.00;28.58;;;;;;;;;;5111142;28;20054;-76
2023/01/20 07:57:40;;;;;;;62.28;27.00;;;;;;;;;;5110160;28;20024;-76
2023/01/20 08:00:06;;;;;;;42.08;16.45;;;;;;;;;;5083777;28;20077;-76
2023/01/20 08:02:37;;;;;;;25.23;10.07;;;;;;;;;;5110072;28;20031;-76
2023/01/20 08:05:03;;;;;;;37.72;16.67;;;;;;;;;;5099611;28;20040;-76
2023/01/20 08:07:29;;;;;;;75.45;28.40;;;;;;;;;;5104997;28;20032;-76
2023/01/20 08:09:55;;;;;;;77.85;31.80;;;;;;;;;;5103472;28;20043;-76
2023/01/20 08:12:21;;;;;;;83.40;35.75;;;;;;;;;;5103512;28;20510;-75
2023/01/20 08:14:47;;;;;;;72.75;32.42;;;;;;;;;;5104959;28;20114;-76
2023/01/20 08:17:13;;;;;;;52.30;24.83;;;;;;;;;;5110311;28;20650;-76
2023/01/20 08:19:39;;;;;;;36.63;17.90;;;;;;;;;;5105526;28;20038;-76
2023/01/20 08:22:05;;;;;;;52.30;25.35;;;;;;;;;;5109584;28;20088;-76
2023/01/20 08:24:31;;;;;;;51.67;25.83;;;;;;;;;;5108159;28;20028;-75
2023/01/20 08:26:57;;;;;;;44.00;22.70;;;;;;;;;;5110890;28;20384;-76
2023/01/20 08:29:24;;;;;;;44.58;21.48;;;;;;;;;;5103211;28;20441;-75
2023/01/20 08:31:50;;;;;;;44.65;22.05;;;;;;;;;;5101654;28;20051;-76
2023/01/20 08:34:17;;;;;;;32.17;15.43;;;;;;;;;;5108121;28;20066;-75
2023/01/20 08:36:43;;;;;;;19.83;8.82;;;;;;;;;;5100642;28;20064;-76
2023/01/20 08:39:10;;;;;;;17.08;6.32;;;;;;;;;;5109182;28;20500;-76
2023/01/20 08:41:37;;;;;;;32.58;18.08;;;;;;;;;;5108706;28;20119;-75
2023/01/20 08:44:04;;;;;;;40.53;19.80;;;;;;;;;;5107396;28;20088;-75
2023/01/20 08:46:31;;;;;;;42.90;19.38;;;;;;;;;;5105228;28;20028;-76
2023/01/20 08:48:57;;;;;;;36.55;16.75;;;;;;;;;;5107925;28;20035;-75
2023/01/20 08:51:25;;;;;;;27.92;15.00;;;;;;;;;;5107125;28;20122;-76
2023/01/20 08:53:51;;;;;;;31.20;15.65;;;;;;;;;;5108099;28;20032;-75
2023/01/20 08:56:18;;;;;;;35.75;15.32;;;;;;;;;;5103505;28;20727;-75
2023/01/20 08:58:44;;;;;;;38.20;19.63;;;;;;;;;;5099683;28;20030;-75
2023/01/20 09:01:15;;;;;;;49.00;21.50;;;;;;;;;;5107754;28;20335;-75
2023/01/20 09:03:41;;;;;;;33.55;17.77;;;;;;;;;;5104350;28;20035;-76
2023/01/20 09:06:08;;;;;;;34.97;17.85;;;;;;;;;;5109170;28;20023;-76
2023/01/20 09:08:34;;;;;;;31.17;15.65;;;;;;;;;;5106396;28;20042;-76
2023/01/20 09:11:26;;;;;;;31.75;16.33;;;;;;;;;;5107813;28;20024;-75
2023/01/20 09:13:53;;;;;;;33.42;15.07;;;;;;;;;;5101133;28;20067;-76
2023/01/20 09:16:19;;;;;;;42.20;19.40;;;;;;;;;;5104048;28;20039;-76
2023/01/20 09:18:45;;;;;;;33.78;16.63;;;;;;;;;;5108388;28;20031;-76
2023/01/20 09:21:11;;;;;;;32.83;14.80;;;;;;;;;;5102572;28;20032;-76
2023/01/20 09:23:38;;;;;;;27.10;13.43;;;;;;;;;;5106797;28;20024;-75
2023/01/20 09:26:05;;;;;;;24.45;12.00;;;;;;;;;;5101628;28;20093;-75
2023/01/20 09:28:31;;;;;;;23.95;11.95;;;;;;;;;;5109050;28;20035;-76
2023/01/20 09:31:00;;;;;;;34.63;15.38;;;;;;;;;;5107771;28;20036;-76
2023/01/20 09:33:26;;;;;;;32.42;17.77;;;;;;;;;;5107939;28;20027;-75
2023/01/20 09:35:59;;;;;;;39.63;17.60;;;;;;;;;;5106124;28;20110;-76
2023/01/20 09:44:21;;;;;;;28.08;14.48;;;;;;;;;;5103342;28;20501;-76
2023/01/20 09:47:19;;;;;;;41.08;19.02;;;;;;;;;;5107322;28;20039;-75
2023/01/20 09:53:03;;;;;;;29.10;15.90;;;;;;;;;;5108562;28;20173;-76
2023/01/20 09:55:48;;;;;;;43.40;22.05;;;;;;;;;;5109026;28;20035;-75
2023/01/20 09:58:20;;;;;;;42.42;23.13;;;;;;;;;;5102520;28;20501;-76
2023/01/20 10:00:46;;;;;;;;;;;;;;;;;;5103013;28;20031;-76
2023/01/20 10:03:12;;;;;;;;;;;;;;;;;;5105577;28;20263;-76
2023/01/20 10:05:38;;;;;;;;;;;;;;;;;;5108061;28;20255;-75
2023/01/20 10:08:04;;;;;;;;;;;;;;;;;;5108326;28;19926;-75
2023/01/20 10:10:30;;;;;;;;;;;;;;;;;;5104933;28;19911;-75
2023/01/20 10:12:56;;;;;;;;;;;;;;;;;;5102869;28;20367;-75
2023/01/20 10:15:22;;;;;;;;;;;;;;;;;;5104857;28;20373;-75
2023/01/20 10:17:48;;;;;;;;;;;;;;;;;;5107527;28;19916;-75
2023/01/20 10:20:14;;;;;;;;;;;;;;;;;;5107754;28;20441;-75
2023/01/20 10:22:40;;;;;;;;;;;;;;;;;;5107067;28;19916;-75
2023/01/20 10:25:06;;;;;;;;;;;;;;;;;;5105297;28;20008;-75
2023/01/20 10:27:32;;;;;;;;;;;;;;;;;;5101820;28;19922;-75
2023/01/20 10:29:59;;;;;;;;;;;;;;;;;;5102821;28;19912;-76
2023/01/20 10:32:26;;;;;;;;;;;;;;;;;;5104046;28;19919;-76
2023/01/20 10:34:52;;;;;;;;;;;;;;;;;;5105488;28;19954;-75
2023/01/20 10:37:18;;;;;;;;;;;;;;;;;;5101454;28;19947;-76
2023/01/20 10:39:44;;;;;;;;;;;;;;;;;;5106612;28;19918;-76
2023/01/20 10:42:09;;;;;;;;;;;;;;;;;;5100820;28;19952;-76
2023/01/20 10:44:35;;;;;;;;;;;;;;;;;;5106165;28;19911;-75
2023/01/20 10:47:01;;;;;;;;;;;;;;;;;;5099955;28;19911;-76
2023/01/20 10:49:27;;;;;;;;;;;;;;;;;;5105088;28;19918;-75
2023/01/20 10:51:53;;;;;;;;;;;;;;;;;;5104354;28;20500;-75
2023/01/20 10:54:19;;;;;;;;;;;;;;;;;;5105601;28;19912;-75
2023/01/20 10:56:50;;;;;;;;;;;;;;;;;;5106014;28;20289;-75
2023/01/20 10:59:16;;;;;;;;;;;;;;;;;;5101606;28;19912;-75
2023/01/20 11:01:42;;;;;;;;;;;;;;;;;;5100656;28;19961;-75
2023/01/20 11:04:08;;;;;;;;;;;;;;;;;;5100591;28;19908;-76
2023/01/20 11:06:34;;;;;;;;;;;;;;;;;;5105571;28;19912;-75
2023/01/20 11:08:59;;;;;;;;;;;;;;;;;;5106465;28;19948;-75
2023/01/20 11:11:25;;;;;;;;;;;;;;;;;;5107112;28;19915;-75
2023/01/20 11:13:51;;;;;;;;;;;;;;;;;;5108409;28;19907;-75
2023/01/20 11:16:17;;;;;;;;;;;;;;;;;;5106193;28;20060;-75
2023/01/20 11:18:43;;;;;;;;;;;;;;;;;;5105245;28;19915;-75
2023/01/20 11:21:09;;;;;;;;;;;;;;;;;;5108938;28;19946;-75
2023/01/20 11:23:36;;;;;;;;;;;;;;;;;;5108450;28;20575;-75
2023/01/20 11:26:08;;;;;;;;;;;;;;;;;;5102849;28;19912;-75
2023/01/20 11:28:34;;;;;;;;;;;;;;;;;;5106332;28;19912;-75
2023/01/20 11:31:00;;;;;;;;;;;;;;;;;;5100819;28;19912;-75
2023/01/20 11:33:27;;;;;;;;;;;;;;;;;;5107108;28;19912;-75
2023/01/20 11:35:52;;;;;;;;;;;;;;;;;;5101320;28;20707;-75
2023/01/20 11:38:18;;;;;;;;;;;;;;;;;;5109243;28;19923;-76
2023/01/20 11:40:44;;;;;;;;;;;;;;;;;;5108721;28;19915;-75
2023/01/20 11:43:10;;;;;;;;;;;;;;;;;;5103699;28;19915;-76
2023/01/20 11:45:36;;;;;;;;;;;;;;;;;;5102217;28;19911;-75
2023/01/20 11:48:02;;;;;;;;;;;;;;;;;;5108869;28;19916;-76
2023/01/20 11:50:28;;;;;;;;;;;;;;;;;;5107650;28;19930;-76
2023/01/20 11:52:54;;;;;;;;;;;;;;;;;;5106788;28;19920;-76
2023/01/20 11:55:19;;;;;;;;;;;;;;;;;;5106810;28;20026;-75
2023/01/20 11:57:45;;;;;;;;;;;;;;;;;;5108940;28;19916;-76
2023/01/20 12:00:11;;;;;;;;;;;;;;;;;;5109179;28;20003;-75
2023/01/20 12:02:40;;;;;;;;;;;;;;;;;;5103600;28;19969;-76
2023/01/20 12:05:06;;;;;;;;;;;;;;;;;;5110210;28;20273;-75
2023/01/20 12:07:32;;;;;;;;;;;;;;;;;;5109262;28;19915;-76
2023/01/20 12:09:58;;;;;;;;;;;;;;;;;;5089047;28;19924;-76
2023/01/20 12:12:24;;;;;;;;;;;;;;;;;;5110301;28;19926;-76
2023/01/20 12:14:50;;;;;;;;;;;;;;;;;;5107759;28;20445;-76
2023/01/20 12:17:16;;;;;;;;;;;;;;;;;;5107209;28;19923;-76
2023/01/20 12:19:42;;;;;;;;;;;;;;;;;;5104344;28;19912;-76
2023/01/20 12:22:08;;;;;;;;;;;;;;;;;;5107742;28;20447;-75
2023/01/20 12:25:06;;;;;;;;;;;;;;;;;;5109188;28;19956;-76
2023/01/20 12:27:19;;;;;;;;;;;;;;;;;;5105788;28;20427;-76
2023/01/20 12:29:45;;;;;;;;;;;;;;;;;;5107074;28;19951;-75
2023/01/20 12:32:11;;;;;;;;;;;;;;;;;;5100280;28;19915;-75
2023/01/20 12:34:37;;;;;;;;;;;;;;;;;;5109266;28;20651;-76
2023/01/20 12:37:03;;;;;;;;;;;;;;;;;;5108289;28;19916;-75
2023/01/20 12:39:29;;;;;;;;;;;;;;;;;;5106502;28;19911;-76
2023/01/20 12:41:55;;;;;;;;;;;;;;;;;;5104518;28;19939;-75
2023/01/20 12:44:21;;;;;;;;;;;;;;;;;;5105555;28;19920;-75
2023/01/20 12:46:47;;;;;;;;;;;;;;;;;;5106670;28;19915;-76
2023/01/20 12:49:13;;;;;;;;;;;;;;;;;;5107285;28;19918;-75
2023/01/20 12:51:39;;;;;;;;;;;;;;;;;;5108714;28;19947;-76
2023/01/20 12:54:05;;;;;;;;;;;;;;;;;;5105539;28;19915;-75
2023/01/20 12:56:31;;;;;;;;;;;;;;;;;;5107176;28;19919;-75
2023/01/20 12:58:56;;;;;;;;;;;;;;;;;;5107277;28;19921;-76
2023/01/20 13:01:22;;;;;;;;;;;;;;;;;;5104594;28;19927;-76
2023/01/20 13:03:48;;;;;;;;;;;;;;;;;;5101191;28;19908;-76
2023/01/20 13:06:14;;;;;;;;;;;;;;;;;;5107327;28;19912;-75
2023/01/20 13:08:40;;;;;;;;;;;;;;;;;;5108266;28;20393;-76
2023/01/20 13:11:06;;;;;;;;;;;;;;;;;;5100586;28;19916;-76
2023/01/20 13:13:32;;;;;;;;;;;;;;;;;;5106004;28;20647;-75
2023/01/20 13:15:58;;;;;;;;;;;;;;;;;;5102418;28;20250;-75
2023/01/20 13:18:24;;;;;;;;;;;;;;;;;;5105785;28;20354;-76
2023/01/20 13:20:50;;;;;;;;;;;;;;;;;;5106435;28;19912;-76
2023/01/20 13:23:16;;;;;;;;;;;;;;;;;;5109670;28;19923;-75
2023/01/20 13:25:42;;;;;;;;;;;;;;;;;;5109210;28;19972;-75
2023/01/20 13:28:07;;;;;;;;;;;;;;;;;;5104839;28;19951;-75
2023/01/20 13:30:33;;;;;;;;;;;;;;;;;;5100608;28;20355;-75
2023/01/20 13:32:59;;;;;;;;;;;;;;;;;;5108522;28;19959;-75
2023/01/20 13:35:26;;;;;;;;;;;;;;;;;;5104876;28;20012;-76
2023/01/20 13:37:52;;;;;;;;;;;;;;;;;;5104357;28;19916;-75
2023/01/20 13:40:18;;;;;;;;;;;;;;;;;;5097319;28;19912;-75
2023/01/20 13:42:44;;;;;;;;;;;;;;;;;;5102994;28;19984;-76
2023/01/20 13:45:09;;;;;;;;;;;;;;;;;;5103427;28;20384;-75
2023/01/20 13:47:35;;;;;;;;;;;;;;;;;;5104318;28;19923;-75
2023/01/20 13:50:01;;;;;;;;;;;;;;;;;;5104286;28;19938;-75
2023/01/20 13:52:27;;;;;;;;;;;;;;;;;;5109552;28;19950;-75
2023/01/20 13:54:53;;;;;;;;;;;;;;;;;;5108276;28;19919;-75
2023/01/20 13:57:19;;;;;;;;;;;;;;;;;;5108851;28;19916;-76
2023/01/20 13:59:45;;;;;;;;;;;;;;;;;;5098857;28;19950;-75
2023/01/20 14:02:11;;;;;;;;;;;;;;;;;;5105171;28;20178;-75
2023/01/20 14:04:37;;;;;;;;;;;;;;;;;;5108266;28;19955;-75
2023/01/20 14:07:08;;;;;;;;;;;;;;;;;;5102600;28;19942;-76
2023/01/20 14:09:34;;;;;;;;;;;;;;;;;;5102135;28;19923;-76
2023/01/20 14:12:00;;;;;;;;;;;;;;;;;;5107738;28;19915;-76
2023/01/20 14:14:26;;;;;;;;;;;;;;;;;;5108150;28;19911;-75
2023/01/20 14:16:52;;;;;;;;;;;;;;;;;;5094425;28;19920;-75
2023/01/20 14:19:18;;;;;;;;;;;;;;;;;;5101194;28;19911;-75
2023/01/20 14:21:43;;;;;;;;;;;;;;;;;;5106006;28;19991;-75
2023/01/20 14:24:09;;;;;;;;;;;;;;;;;;5104986;28;20324;-75
2023/01/20 14:26:35;;;;;;;;;;;;;;;;;;5106378;28;19962;-75
2023/01/20 14:29:02;;;;;;;;;;;;;;;;;;5101346;28;20382;-75
2023/01/20 14:31:28;;;;;;;;;;;;;;;;;;5100786;28;20028;-75
2023/01/20 14:33:54;;;;;;;;;;;;;;;;;;5100512;28;19907;-75
2023/01/20 14:36:20;;;;;;;;;;;;;;;;;;5105186;28;19938;-75
2023/01/20 14:38:46;;;;;;;;;;;;;;;;;;5107858;28;19912;-76
2023/01/20 14:41:12;;;;;;;;;;;;;;;;;;5099039;28;19921;-76
2023/01/20 14:43:38;;;;;;;;;;;;;;;;;;5103986;28;19953;-76
2023/01/20 14:46:04;;;;;;;;;;;;;;;;;;5109047;28;19915;-75
2023/01/20 14:48:29;;;;;;;;;;;;;;;;;;5101649;28;19915;-75
2023/01/20 14:50:56;;;;;;;;;;;;;;;;;;5101106;28;20688;-75
2023/01/20 14:53:21;;;;;;;;;;;;;;;;;;5102621;28;19919;-75
2023/01/20 14:55:47;;;;;;;;;;;;;;;;;;5108306;28;19916;-76
2023/01/20 14:58:13;;;;;;;;;;;;;;;;;;5110694;28;19916;-76
2023/01/20 15:00:39;;;;;;;;;;;;;;;;;;5111451;28;19954;-75
2023/01/20 15:03:05;;;;;;;;;;;;;;;;;;5102222;28;20380;-76
2023/01/20 15:05:31;;;;;;;;;;;;;;;;;;5105035;28;19973;-75
2023/01/20 15:07:57;;;;;;;;;;;;;;;;;;5106598;28;19947;-75
2023/01/20 15:10:23;;;;;;;;;;;;;;;;;;5107889;28;19915;-75
2023/01/20 15:12:49;;;;;;;;;;;;;;;;;;5109321;28;19919;-75
2023/01/20 15:15:14;;;;;;;;;;;;;;;;;;5107598;28;19916;-75